sensor_id;sensor_type;location;lat;lon;timestamp;temperature;humidity
3281;DHT22;1652;51.318;6.202;2023-05-29T00:02:16;14.10;1.00
3281;DHT22;1652;51.318;6.202;2023-05-29T00:04:43;14.10;1.00
3281;DHT22;1652;51.318;6.202;2023-05-29T00:07:10;14.00;1.00
3281;DHT22;1652;51.318;6.202;2023-05-29T00:09:37;14.00;5.30
3281;DHT22;1652;51.318;6.202;2023-05-29T00:12:04;13.90;11.40
3281;DHT22;1652;51.318;6.202;2023-05-29T00:14:32;13.90;17.10
3281;DHT22;1652;51.318;6.202;2023-05-29T00:16:59;13.80;23.20
3281;DHT22;1652;51.318;6.202;2023-05-29T00:19:26;13.80;27.10
3281;DHT22;1652;51.318;6.202;2023-05-29T00:21:53;13.80;36.20
3281;DHT22;1652;51.318;6.202;2023-05-29T00:24:21;13.70;45.40
3281;DHT22;1652;51.318;6.202;2023-05-29T00:26:48;13.70;53.40
3281;DHT22;1652;51.318;6.202;2023-05-29T00:29:15;13.70;52.70
3281;DHT22;1652;51.318;6.202;2023-05-29T00:31:42;13.70;67.80
3281;DHT22;1652;51.318;6.202;2023-05-29T00:34:09;13.60;83.00
3281;DHT22;1652;51.318;6.202;2023-05-29T00:36:35;13.60;89.60
3281;DHT22;1652;51.318;6.202;2023-05-29T00:39:03;13.60;97.60
3281;DHT22;1652;51.318;6.202;2023-05-29T00:41:30;13.50;99.90
3281;DHT22;1652;51.318;6.202;2023-05-29T00:43:57;13.40;99.90
3281;DHT22;1652;51.318;6.202;2023-05-29T00:46:24;13.30;99.90
3281;DHT22;1652;51.318;6.202;2023-05-29T00:48:51;13.20;99.90
3281;DHT22;1652;51.318;6.202;2023-05-29T00:51:18;13.10;99.90
3281;DHT22;1652;51.318;6.202;2023-05-29T00:53:45;13.10;99.90
3281;DHT22;1652;51.318;6.202;2023-05-29T00:56:12;13.00;99.90
3281;DHT22;1652;51.318;6.202;2023-05-29T00:58:40;13.00;99.90
3281;DHT22;1652;51.318;6.202;2023-05-29T01:01:08;12.90;99.90
3281;DHT22;1652;51.318;6.202;2023-05-29T01:03:35;12.80;99.90
3281;DHT22;1652;51.318;6.202;2023-05-29T01:06:02;12.80;99.90
3281;DHT22;1652;51.318;6.202;2023-05-29T01:08:30;12.80;99.90
3281;DHT22;1652;51.318;6.202;2023-05-29T01:11:09;12.70;99.90
3281;DHT22;1652;51.318;6.202;2023-05-29T01:13:41;12.70;99.90
3281;DHT22;1652;51.318;6.202;2023-05-29T01:16:32;12.70;99.90
3281;DHT22;1652;51.318;6.202;2023-05-29T01:22:15;12.50;99.90
3281;DHT22;1652;51.318;6.202;2023-05-29T01:27:21;12.50;99.90
3281;DHT22;1652;51.318;6.202;2023-05-29T01:29:52;12.40;99.90
3281;DHT22;1652;51.318;6.202;2023-05-29T01:32:22;12.40;99.90
3281;DHT22;1652;51.318;6.202;2023-05-29T01:34:49;12.30;99.90
3281;DHT22;1652;51.318;6.202;2023-05-29T01:37:16;12.30;99.90
3281;DHT22;1652;51.318;6.202;2023-05-29T01:39:43;12.40;99.90
3281;DHT22;1652;51.318;6.202;2023-05-29T01:42:10;12.20;99.90
3281;DHT22;1652;51.318;6.202;2023-05-29T01:44:38;12.20;99.90
3281;DHT22;1652;51.318;6.202;2023-05-29T01:47:06;12.10;99.90
3281;DHT22;1652;51.318;6.202;2023-05-29T01:49:33;12.00;99.90
3281;DHT22;1652;51.318;6.202;2023-05-29T01:52:01;12.00;99.90
3281;DHT22;1652;51.318;6.202;2023-05-29T01:54:28;12.00;99.90
3281;DHT22;1652;51.318;6.202;2023-05-29T01:56:55;12.00;99.90
3281;DHT22;1652;51.318;6.202;2023-05-29T01:59:22;11.90;99.90
3281;DHT22;1652;51.318;6.202;2023-05-29T02:01:49;11.80;99.90
3281;DHT22;1652;51.318;6.202;2023-05-29T02:04:16;11.80;99.90
3281;DHT22;1652;51.318;6.202;2023-05-29T02:06:43;11.90;99.90
3281;DHT22;1652;51.318;6.202;2023-05-29T02:09:10;11.80;99.90
3281;DHT22;1652;51.318;6.202;2023-05-29T02:11:37;11.80;99.90
3281;DHT22;1652;51.318;6.202;2023-05-29T02:14:04;11.70;99.90
3281;DHT22;1652;51.318;6.202;2023-05-29T02:16:31;11.60;99.90
3281;DHT22;1652;51.318;6.202;2023-05-29T02:19:01;11.60;99.90
3281;DHT22;1652;51.318;6.202;2023-05-29T02:21:28;11.60;99.90
3281;DHT22;1652;51.318;6.202;2023-05-29T02:23:55;11.50;99.90
3281;DHT22;1652;51.318;6.202;2023-05-29T02:26:22;11.50;99.90
3281;DHT22;1652;51.318;6.202;2023-05-29T02:28:49;11.50;99.90
3281;DHT22;1652;51.318;6.202;2023-05-29T02:31:16;11.50;99.90
3281;DHT22;1652;51.318;6.202;2023-05-29T02:33:43;11.50;99.90
3281;DHT22;1652;51.318;6.202;2023-05-29T02:36:10;11.40;99.90
3281;DHT22;1652;51.318;6.202;2023-05-29T02:38:38;11.40;99.90
3281;DHT22;1652;51.318;6.202;2023-05-29T02:41:05;11.40;99.90
3281;DHT22;1652;51.318;6.202;2023-05-29T02:43:32;11.40;99.90
3281;DHT22;1652;51.318;6.202;2023-05-29T02:45:59;11.30;99.90
3281;DHT22;1652;51.318;6.202;2023-05-29T02:48:26;11.40;96.90
3281;DHT22;1652;51.318;6.202;2023-05-29T02:50:53;11.20;94.00
3281;DHT22;1652;51.318;6.202;2023-05-29T02:53:20;11.20;97.50
3281;DHT22;1652;51.318;6.202;2023-05-29T02:55:48;11.20;99.90
3281;DHT22;1652;51.318;6.202;2023-05-29T02:58:15;11.10;98.60
3281;DHT22;1652;51.318;6.202;2023-05-29T03:00:43;11.10;97.50
3281;DHT22;1652;51.318;6.202;2023-05-29T03:03:10;11.10;95.00
3281;DHT22;1652;51.318;6.202;2023-05-29T03:05:40;11.00;95.70
3281;DHT22;1652;51.318;6.202;2023-05-29T03:08:07;11.00;99.90
3281;DHT22;1652;51.318;6.202;2023-05-29T03:10:34;11.10;95.10
3281;DHT22;1652;51.318;6.202;2023-05-29T03:13:01;11.00;95.70
3281;DHT22;1652;51.318;6.202;2023-05-29T03:15:28;11.00;99.90
3281;DHT22;1652;51.318;6.202;2023-05-29T03:17:55;10.90;97.00
3281;DHT22;1652;51.318;6.202;2023-05-29T03:20:21;10.90;99.90
3281;DHT22;1652;51.318;6.202;2023-05-29T03:22:49;10.80;99.90
3281;DHT22;1652;51.318;6.202;2023-05-29T03:25:16;10.80;99.90
3281;DHT22;1652;51.318;6.202;2023-05-29T03:27:43;10.80;99.90
3281;DHT22;1652;51.318;6.202;2023-05-29T03:30:11;10.80;99.90
3281;DHT22;1652;51.318;6.202;2023-05-29T03:32:38;10.80;99.90
3281;DHT22;1652;51.318;6.202;2023-05-29T03:35:05;10.80;99.90
3281;DHT22;1652;51.318;6.202;2023-05-29T03:37:32;10.70;99.90
3281;DHT22;1652;51.318;6.202;2023-05-29T03:39:59;10.70;99.90
3281;DHT22;1652;51.318;6.202;2023-05-29T03:42:26;10.70;99.90
3281;DHT22;1652;51.318;6.202;2023-05-29T03:44:53;10.60;99.90
3281;DHT22;1652;51.318;6.202;2023-05-29T03:47:19;10.60;99.90
3281;DHT22;1652;51.318;6.202;2023-05-29T03:49:47;10.50;99.90
3281;DHT22;1652;51.318;6.202;2023-05-29T03:52:14;10.60;99.90
3281;DHT22;1652;51.318;6.202;2023-05-29T03:54:41;10.50;99.90
3281;DHT22;1652;51.318;6.202;2023-05-29T03:57:08;10.50;99.90
3281;DHT22;1652;51.318;6.202;2023-05-29T03:59:35;10.60;99.90
3281;DHT22;1652;51.318;6.202;2023-05-29T04:02:03;10.60;99.90
3281;DHT22;1652;51.318;6.202;2023-05-29T04:04:30;10.60;99.90
3281;DHT22;1652;51.318;6.202;2023-05-29T04:06:57;10.60;99.90
3281;DHT22;1652;51.318;6.202;2023-05-29T04:09:24;10.90;99.90
3281;DHT22;1652;51.318;6.202;2023-05-29T04:11:52;11.00;99.90
3281;DHT22;1652;51.318;6.202;2023-05-29T04:14:18;11.00;99.90
3281;DHT22;1652;51.318;6.202;2023-05-29T04:16:46;11.20;85.80
3281;DHT22;1652;51.318;6.202;2023-05-29T04:19:13;11.40;66.40
3281;DHT22;1652;51.318;6.202;2023-05-29T04:21:40;11.40;68.10
3281;DHT22;1652;51.318;6.202;2023-05-29T04:24:07;11.50;55.30
3281;DHT22;1652;51.318;6.202;2023-05-29T04:26:34;11.50;62.60
3281;DHT22;1652;51.318;6.202;2023-05-29T04:29:01;11.50;58.50
3281;DHT22;1652;51.318;6.202;2023-05-29T04:31:28;11.40;62.90
3281;DHT22;1652;51.318;6.202;2023-05-29T04:33:55;11.20;96.70
3281;DHT22;1652;51.318;6.202;2023-05-29T04:36:23;11.20;94.30
3281;DHT22;1652;51.318;6.202;2023-05-29T04:38:55;11.20;95.50
3281;DHT22;1652;51.318;6.202;2023-05-29T04:41:22;11.20;93.10
3281;DHT22;1652;51.318;6.202;2023-05-29T04:43:50;11.30;92.70
3281;DHT22;1652;51.318;6.202;2023-05-29T04:46:22;11.30;97.20
3281;DHT22;1652;51.318;6.202;2023-05-29T04:48:54;11.40;84.10
3281;DHT22;1652;51.318;6.202;2023-05-29T04:51:21;11.60;64.60
3281;DHT22;1652;51.318;6.202;2023-05-29T04:53:50;11.70;44.20
3281;DHT22;1652;51.318;6.202;2023-05-29T04:56:18;11.90;39.00
3281;DHT22;1652;51.318;6.202;2023-05-29T04:58:48;12.30;26.20
3281;DHT22;1652;51.318;6.202;2023-05-29T05:01:15;12.70;1.00
3281;DHT22;1652;51.318;6.202;2023-05-29T05:03:42;12.90;1.00
3281;DHT22;1652;51.318;6.202;2023-05-29T05:06:09;13.10;1.00
3281;DHT22;1652;51.318;6.202;2023-05-29T05:08:36;13.20;1.00
3281;DHT22;1652;51.318;6.202;2023-05-29T05:11:04;13.70;1.00
3281;DHT22;1652;51.318;6.202;2023-05-29T05:13:33;13.80;1.00
3281;DHT22;1652;51.318;6.202;2023-05-29T05:16:00;14.10;99.90
3281;DHT22;1652;51.318;6.202;2023-05-29T05:18:28;14.20;99.90
3281;DHT22;1652;51.318;6.202;2023-05-29T05:20:54;14.20;99.90
3281;DHT22;1652;51.318;6.202;2023-05-29T05:23:22;14.20;99.90
3281;DHT22;1652;51.318;6.202;2023-05-29T05:25:49;14.20;80.00
3281;DHT22;1652;51.318;6.202;2023-05-29T05:28:16;14.40;1.00
3281;DHT22;1652;51.318;6.202;2023-05-29T05:30:43;14.20;27.50
3281;DHT22;1652;51.318;6.202;2023-05-29T05:33:10;14.20;99.90
3281;DHT22;1652;51.318;6.202;2023-05-29T05:35:37;14.30;99.90
3281;DHT22;1652;51.318;6.202;2023-05-29T05:38:04;14.60;1.00
3281;DHT22;1652;51.318;6.202;2023-05-29T05:40:31;14.80;99.90
3281;DHT22;1652;51.318;6.202;2023-05-29T05:42:58;15.00;99.90
3281;DHT22;1652;51.318;6.202;2023-05-29T05:45:25;15.30;1.00
3281;DHT22;1652;51.318;6.202;2023-05-29T05:47:52;15.50;1.00
3281;DHT22;1652;51.318;6.202;2023-05-29T05:50:19;15.50;1.00
3281;DHT22;1652;51.318;6.202;2023-05-29T05:52:47;15.60;92.70
3281;DHT22;1652;51.318;6.202;2023-05-29T05:55:14;15.70;1.00
3281;DHT22;1652;51.318;6.202;2023-05-29T05:57:42;15.70;1.00
3281;DHT22;1652;51.318;6.202;2023-05-29T06:00:09;15.60;1.00
3281;DHT22;1652;51.318;6.202;2023-05-29T06:02:40;15.20;99.90
3281;DHT22;1652;51.318;6.202;2023-05-29T06:05:12;15.80;99.90
3281;DHT22;1652;51.318;6.202;2023-05-29T06:07:39;15.80;1.00
3281;DHT22;1652;51.318;6.202;2023-05-29T06:10:06;15.90;99.90
3281;DHT22;1652;51.318;6.202;2023-05-29T06:12:33;16.10;99.90
3281;DHT22;1652;51.318;6.202;2023-05-29T06:15:01;16.60;1.00
3281;DHT22;1652;51.318;6.202;2023-05-29T06:17:29;17.20;1.00
3281;DHT22;1652;51.318;6.202;2023-05-29T06:19:59;17.30;99.90
3281;DHT22;1652;51.318;6.202;2023-05-29T06:22:27;17.10;1.00
3281;DHT22;1652;51.318;6.202;2023-05-29T06:24:53;16.80;99.90
3281;DHT22;1652;51.318;6.202;2023-05-29T06:27:20;16.80;1.00
3281;DHT22;1652;51.318;6.202;2023-05-29T06:29:50;16.70;99.90
3281;DHT22;1652;51.318;6.202;2023-05-29T06:32:16;16.10;1.00
3281;DHT22;1652;51.318;6.202;2023-05-29T06:34:43;16.40;1.00
3281;DHT22;1652;51.318;6.202;2023-05-29T06:37:10;16.20;1.00
3281;DHT22;1652;51.318;6.202;2023-05-29T06:39:37;16.10;1.00
3281;DHT22;1652;51.318;6.202;2023-05-29T06:42:05;16.40;1.00
3281;DHT22;1652;51.318;6.202;2023-05-29T06:44:32;17.10;1.00
3281;DHT22;1652;51.318;6.202;2023-05-29T06:46:59;17.80;99.90
3281;DHT22;1652;51.318;6.202;2023-05-29T06:49:26;18.40;99.90
3281;DHT22;1652;51.318;6.202;2023-05-29T06:51:53;18.30;1.00
3281;DHT22;1652;51.318;6.202;2023-05-29T06:54:20;18.50;99.90
3281;DHT22;1652;51.318;6.202;2023-05-29T06:56:47;19.00;29.00
3281;DHT22;1652;51.318;6.202;2023-05-29T06:59:34;19.00;1.00
3281;DHT22;1652;51.318;6.202;2023-05-29T07:02:01;18.00;39.70
3281;DHT22;1652;51.318;6.202;2023-05-29T07:04:28;17.30;99.90
3281;DHT22;1652;51.318;6.202;2023-05-29T07:06:55;17.60;88.50
3281;DHT22;1652;51.318;6.202;2023-05-29T07:09:22;18.50;1.00
3281;DHT22;1652;51.318;6.202;2023-05-29T07:11:49;18.70;99.90
3281;DHT22;1652;51.318;6.202;2023-05-29T07:14:16;18.80;73.90
3281;DHT22;1652;51.318;6.202;2023-05-29T07:16:43;18.90;8.40
3281;DHT22;1652;51.318;6.202;2023-05-29T07:19:09;18.70;99.90
3281;DHT22;1652;51.318;6.202;2023-05-29T07:21:48;19.10;51.00
3281;DHT22;1652;51.318;6.202;2023-05-29T07:24:15;18.70;1.00
3281;DHT22;1652;51.318;6.202;2023-05-29T07:26:42;18.80;1.00
3281;DHT22;1652;51.318;6.202;2023-05-29T07:29:09;18.70;27.70
3281;DHT22;1652;51.318;6.202;2023-05-29T07:31:36;18.60;1.00
3281;DHT22;1652;51.318;6.202;2023-05-29T07:34:04;18.70;1.00
3281;DHT22;1652;51.318;6.202;2023-05-29T07:36:30;19.00;1.00
3281;DHT22;1652;51.318;6.202;2023-05-29T07:39:00;18.90;1.00
3281;DHT22;1652;51.318;6.202;2023-05-29T07:41:28;19.30;1.00
3281;DHT22;1652;51.318;6.202;2023-05-29T07:43:55;19.10;1.00
3281;DHT22;1652;51.318;6.202;2023-05-29T07:46:22;19.30;99.90
3281;DHT22;1652;51.318;6.202;2023-05-29T07:48:50;19.60;1.00
3281;DHT22;1652;51.318;6.202;2023-05-29T07:51:16;19.70;99.90
3281;DHT22;1652;51.318;6.202;2023-05-29T07:53:45;20.20;99.90
3281;DHT22;1652;51.318;6.202;2023-05-29T07:56:12;20.40;1.00
3281;DHT22;1652;51.318;6.202;2023-05-29T07:58:40;20.40;1.00
3281;DHT22;1652;51.318;6.202;2023-05-29T08:01:08;20.30;1.00
3281;DHT22;1652;51.318;6.202;2023-05-29T08:03:35;20.50;99.90
3281;DHT22;1652;51.318;6.202;2023-05-29T08:06:02;21.00;1.00
3281;DHT22;1652;51.318;6.202;2023-05-29T08:08:30;21.30;1.00
3281;DHT22;1652;51.318;6.202;2023-05-29T08:10:57;20.50;1.00
3281;DHT22;1652;51.318;6.202;2023-05-29T08:13:24;20.10;1.00
3281;DHT22;1652;51.318;6.202;2023-05-29T08:15:51;19.70;72.30
3281;DHT22;1652;51.318;6.202;2023-05-29T08:18:18;19.20;99.90
3281;DHT22;1652;51.318;6.202;2023-05-29T08:20:45;19.20;1.00
3281;DHT22;1652;51.318;6.202;2023-05-29T08:23:12;18.80;1.00
3281;DHT22;1652;51.318;6.202;2023-05-29T08:25:39;18.90;1.00
3281;DHT22;1652;51.318;6.202;2023-05-29T08:28:06;19.30;1.00
3281;DHT22;1652;51.318;6.202;2023-05-29T08:30:32;19.30;1.00
3281;DHT22;1652;51.318;6.202;2023-05-29T08:32:59;19.20;1.00
3281;DHT22;1652;51.318;6.202;2023-05-29T08:35:26;19.80;99.90
3281;DHT22;1652;51.318;6.202;2023-05-29T08:37:53;20.10;99.90
3281;DHT22;1652;51.318;6.202;2023-05-29T08:40:20;20.10;99.90
3281;DHT22;1652;51.318;6.202;2023-05-29T08:42:57;19.50;99.90
3281;DHT22;1652;51.318;6.202;2023-05-29T08:45:27;19.10;1.00
3281;DHT22;1652;51.318;6.202;2023-05-29T08:47:58;19.40;1.00
3281;DHT22;1652;51.318;6.202;2023-05-29T08:50:27;19.80;1.00
3281;DHT22;1652;51.318;6.202;2023-05-29T08:52:54;20.70;99.90
3281;DHT22;1652;51.318;6.202;2023-05-29T08:55:22;21.10;1.00
3281;DHT22;1652;51.318;6.202;2023-05-29T08:57:50;20.40;1.00
3281;DHT22;1652;51.318;6.202;2023-05-29T09:00:17;19.80;75.40
3281;DHT22;1652;51.318;6.202;2023-05-29T09:02:47;19.20;1.00
3281;DHT22;1652;51.318;6.202;2023-05-29T09:05:13;19.20;1.00
3281;DHT22;1652;51.318;6.202;2023-05-29T09:07:40;19.30;1.00
3281;DHT22;1652;51.318;6.202;2023-05-29T09:10:11;19.20;1.00
3281;DHT22;1652;51.318;6.202;2023-05-29T09:12:38;19.20;1.00
3281;DHT22;1652;51.318;6.202;2023-05-29T09:15:24;18.90;1.00
3281;DHT22;1652;51.318;6.202;2023-05-29T09:17:52;19.00;93.80
3281;DHT22;1652;51.318;6.202;2023-05-29T09:20:21;19.00;99.90
3281;DHT22;1652;51.318;6.202;2023-05-29T09:23:12;19.50;1.00
3281;DHT22;1652;51.318;6.202;2023-05-29T09:25:41;19.70;1.00
3281;DHT22;1652;51.318;6.202;2023-05-29T09:28:11;19.90;1.00
3281;DHT22;1652;51.318;6.202;2023-05-29T09:30:40;19.70;99.90
3281;DHT22;1652;51.318;6.202;2023-05-29T09:33:09;20.10;99.90
3281;DHT22;1652;51.318;6.202;2023-05-29T09:35:42;19.60;99.90
3281;DHT22;1652;51.318;6.202;2023-05-29T09:38:11;19.60;99.90
3281;DHT22;1652;51.318;6.202;2023-05-29T09:41:03;19.60;99.90
3281;DHT22;1652;51.318;6.202;2023-05-29T09:43:31;19.40;1.00
3281;DHT22;1652;51.318;6.202;2023-05-29T09:46:01;19.80;99.90
3281;DHT22;1652;51.318;6.202;2023-05-29T09:48:29;19.30;1.00
3281;DHT22;1652;51.318;6.202;2023-05-29T09:50:57;19.20;1.00
3281;DHT22;1652;51.318;6.202;2023-05-29T09:53:26;18.70;1.00
3281;DHT22;1652;51.318;6.202;2023-05-29T09:55:56;18.50;1.00
3281;DHT22;1652;51.318;6.202;2023-05-29T09:58:26;18.70;99.90
3281;DHT22;1652;51.318;6.202;2023-05-29T10:00:53;18.70;99.90
3281;DHT22;1652;51.318;6.202;2023-05-29T10:03:21;18.40;99.90
3281;DHT22;1652;51.318;6.202;2023-05-29T10:05:54;18.10;99.90
3281;DHT22;1652;51.318;6.202;2023-05-29T10:08:26;17.90;99.90
3281;DHT22;1652;51.318;6.202;2023-05-29T10:11:01;18.10;99.90
3281;DHT22;1652;51.318;6.202;2023-05-29T10:13:41;18.30;1.00
3281;DHT22;1652;51.318;6.202;2023-05-29T10:16:11;18.50;99.90
3281;DHT22;1652;51.318;6.202;2023-05-29T10:18:50;18.50;1.00
3281;DHT22;1652;51.318;6.202;2023-05-29T10:21:21;18.30;1.00
3281;DHT22;1652;51.318;6.202;2023-05-29T10:23:49;18.10;1.00
3281;DHT22;1652;51.318;6.202;2023-05-29T10:26:27;18.20;99.90
3281;DHT22;1652;51.318;6.202;2023-05-29T10:29:02;18.30;1.00
3281;DHT22;1652;51.318;6.202;2023-05-29T10:37:41;19.20;99.90
3281;DHT22;1652;51.318;6.202;2023-05-29T10:40:11;19.00;99.90
3281;DHT22;1652;51.318;6.202;2023-05-29T10:42:50;18.70;99.90
3281;DHT22;1652;51.318;6.202;2023-05-29T10:50:43;18.90;1.00
3281;DHT22;1652;51.318;6.202;2023-05-29T10:53:16;18.80;99.90
3281;DHT22;1652;51.318;6.202;2023-05-29T10:55:45;18.90;1.00
3281;DHT22;1652;51.318;6.202;2023-05-29T10:58:22;18.50;1.00
3281;DHT22;1652;51.318;6.202;2023-05-29T11:00:51;18.60;42.20
3281;DHT22;1652;51.318;6.202;2023-05-29T11:03:25;18.60;1.00
3281;DHT22;1652;51.318;6.202;2023-05-29T11:06:00;18.60;1.00
3281;DHT22;1652;51.318;6.202;2023-05-29T11:08:56;18.50;99.90
3281;DHT22;1652;51.318;6.202;2023-05-29T11:11:30;18.50;1.00
3281;DHT22;1652;51.318;6.202;2023-05-29T11:19:07;19.00;99.90
3281;DHT22;1652;51.318;6.202;2023-05-29T11:21:46;19.40;10.40
3281;DHT22;1652;51.318;6.202;2023-05-29T11:24:26;19.10;99.90
3281;DHT22;1652;51.318;6.202;2023-05-29T11:26:56;18.80;99.90
3281;DHT22;1652;51.318;6.202;2023-05-29T11:29:26;18.70;1.00
3281;DHT22;1652;51.318;6.202;2023-05-29T11:32:04;18.80;1.00
3281;DHT22;1652;51.318;6.202;2023-05-29T11:34:32;18.70;1.00
3281;DHT22;1652;51.318;6.202;2023-05-29T11:37:03;18.70;99.90
3281;DHT22;1652;51.318;6.202;2023-05-29T11:39:30;19.00;99.90
3281;DHT22;1652;51.318;6.202;2023-05-29T11:42:00;19.30;1.00
3281;DHT22;1652;51.318;6.202;2023-05-29T11:44:27;19.40;28.60
3281;DHT22;1652;51.318;6.202;2023-05-29T11:47:04;19.60;18.60
3281;DHT22;1652;51.318;6.202;2023-05-29T11:49:33;19.60;1.00
3281;DHT22;1652;51.318;6.202;2023-05-29T11:52:13;19.60;99.90
3281;DHT22;1652;51.318;6.202;2023-05-29T11:54:43;19.30;1.00
3281;DHT22;1652;51.318;6.202;2023-05-29T11:57:19;19.20;1.00
3281;DHT22;1652;51.318;6.202;2023-05-29T11:59:47;19.40;1.00
3281;DHT22;1652;51.318;6.202;2023-05-29T12:02:14;19.20;1.00
3281;DHT22;1652;51.318;6.202;2023-05-29T12:04:41;19.00;1.00
3281;DHT22;1652;51.318;6.202;2023-05-29T12:07:18;19.30;1.00
3281;DHT22;1652;51.318;6.202;2023-05-29T12:09:45;19.30;1.00
3281;DHT22;1652;51.318;6.202;2023-05-29T12:12:14;19.40;1.00
3281;DHT22;1652;51.318;6.202;2023-05-29T12:14:41;19.20;1.00
3281;DHT22;1652;51.318;6.202;2023-05-29T12:17:08;19.00;1.00
3281;DHT22;1652;51.318;6.202;2023-05-29T12:19:35;18.90;1.00
3281;DHT22;1652;51.318;6.202;2023-05-29T12:22:03;18.80;1.00
3281;DHT22;1652;51.318;6.202;2023-05-29T12:24:30;19.20;1.00
3281;DHT22;1652;51.318;6.202;2023-05-29T12:27:09;19.50;1.00
3281;DHT22;1652;51.318;6.202;2023-05-29T12:29:36;19.80;99.90
3281;DHT22;1652;51.318;6.202;2023-05-29T12:32:03;19.80;99.90
3281;DHT22;1652;51.318;6.202;2023-05-29T12:34:36;20.10;99.90
3281;DHT22;1652;51.318;6.202;2023-05-29T12:37:08;20.20;53.30
3281;DHT22;1652;51.318;6.202;2023-05-29T12:39:39;20.20;99.90
3281;DHT22;1652;51.318;6.202;2023-05-29T12:42:06;20.10;54.50
3281;DHT22;1652;51.318;6.202;2023-05-29T12:44:34;19.70;99.90
3281;DHT22;1652;51.318;6.202;2023-05-29T12:47:01;19.90;99.90
3281;DHT22;1652;51.318;6.202;2023-05-29T12:49:28;20.00;99.90
3281;DHT22;1652;51.318;6.202;2023-05-29T12:52:04;19.80;95.90
3281;DHT22;1652;51.318;6.202;2023-05-29T12:54:34;19.60;99.90
3281;DHT22;1652;51.318;6.202;2023-05-29T12:57:01;19.60;99.90
3281;DHT22;1652;51.318;6.202;2023-05-29T12:59:28;19.70;99.90
3281;DHT22;1652;51.318;6.202;2023-05-29T13:01:55;19.60;99.90
3281;DHT22;1652;51.318;6.202;2023-05-29T13:04:22;19.70;99.90
3281;DHT22;1652;51.318;6.202;2023-05-29T13:06:49;19.80;99.90
3281;DHT22;1652;51.318;6.202;2023-05-29T13:09:16;19.80;18.20
3281;DHT22;1652;51.318;6.202;2023-05-29T13:11:43;19.80;22.40
3281;DHT22;1652;51.318;6.202;2023-05-29T13:14:10;20.00;97.60
3281;DHT22;1652;51.318;6.202;2023-05-29T13:16:37;20.10;55.20
3281;DHT22;1652;51.318;6.202;2023-05-29T13:19:04;20.20;22.30
3281;DHT22;1652;51.318;6.202;2023-05-29T13:21:32;20.10;22.90
3281;DHT22;1652;51.318;6.202;2023-05-29T13:23:59;20.20;1.00
3281;DHT22;1652;51.318;6.202;2023-05-29T13:26:26;20.30;1.00
3281;DHT22;1652;51.318;6.202;2023-05-29T13:28:53;20.10;1.00
3281;DHT22;1652;51.318;6.202;2023-05-29T13:31:20;19.70;1.00
3281;DHT22;1652;51.318;6.202;2023-05-29T13:33:47;19.60;1.00
3281;DHT22;1652;51.318;6.202;2023-05-29T13:36:14;19.80;48.90
3281;DHT22;1652;51.318;6.202;2023-05-29T13:38:41;19.90;1.00
3281;DHT22;1652;51.318;6.202;2023-05-29T13:41:10;19.90;1.00
3281;DHT22;1652;51.318;6.202;2023-05-29T13:43:37;20.20;87.00
3281;DHT22;1652;51.318;6.202;2023-05-29T13:46:11;20.20;1.00
3281;DHT22;1652;51.318;6.202;2023-05-29T13:48:38;20.00;1.00
3281;DHT22;1652;51.318;6.202;2023-05-29T13:51:05;19.90;1.00
3281;DHT22;1652;51.318;6.202;2023-05-29T13:53:33;19.60;1.00
3281;DHT22;1652;51.318;6.202;2023-05-29T13:56:00;19.60;1.00
3281;DHT22;1652;51.318;6.202;2023-05-29T13:58:40;19.60;1.00
3281;DHT22;1652;51.318;6.202;2023-05-29T14:01:07;19.60;1.00
3281;DHT22;1652;51.318;6.202;2023-05-29T14:03:34;19.60;1.00
3281;DHT22;1652;51.318;6.202;2023-05-29T14:06:01;19.90;1.00
3281;DHT22;1652;51.318;6.202;2023-05-29T14:08:31;20.00;1.00
3281;DHT22;1652;51.318;6.202;2023-05-29T14:10:58;20.00;1.00
3281;DHT22;1652;51.318;6.202;2023-05-29T14:13:25;20.00;1.00
3281;DHT22;1652;51.318;6.202;2023-05-29T14:15:52;19.60;1.00
3281;DHT22;1652;51.318;6.202;2023-05-29T14:18:22;19.70;1.00
3281;DHT22;1652;51.318;6.202;2023-05-29T14:20:49;19.80;1.00
3281;DHT22;1652;51.318;6.202;2023-05-29T14:23:17;19.50;1.00
3281;DHT22;1652;51.318;6.202;2023-05-29T14:25:44;19.40;1.00
3281;DHT22;1652;51.318;6.202;2023-05-29T14:28:11;19.40;1.00
3281;DHT22;1652;51.318;6.202;2023-05-29T14:30:38;19.30;20.90
3281;DHT22;1652;51.318;6.202;2023-05-29T14:33:05;19.50;1.00
3281;DHT22;1652;51.318;6.202;2023-05-29T14:35:32;19.60;1.00
3281;DHT22;1652;51.318;6.202;2023-05-29T14:37:59;19.80;1.00
3281;DHT22;1652;51.318;6.202;2023-05-29T14:40:26;19.70;1.00
3281;DHT22;1652;51.318;6.202;2023-05-29T14:42:54;19.90;1.00
3281;DHT22;1652;51.318;6.202;2023-05-29T14:45:21;19.60;1.00
3281;DHT22;1652;51.318;6.202;2023-05-29T14:47:47;19.50;1.00
3281;DHT22;1652;51.318;6.202;2023-05-29T14:50:14;19.60;25.80
3281;DHT22;1652;51.318;6.202;2023-05-29T14:52:42;19.70;1.00
3281;DHT22;1652;51.318;6.202;2023-05-29T14:55:09;19.50;1.00
3281;DHT22;1652;51.318;6.202;2023-05-29T14:57:36;19.40;1.00
3281;DHT22;1652;51.318;6.202;2023-05-29T15:00:03;19.20;1.00
3281;DHT22;1652;51.318;6.202;2023-05-29T15:02:33;19.20;1.00
3281;DHT22;1652;51.318;6.202;2023-05-29T15:05:00;18.90;1.00
3281;DHT22;1652;51.318;6.202;2023-05-29T15:07:27;19.00;1.00
3281;DHT22;1652;51.318;6.202;2023-05-29T15:09:53;18.90;1.00
3281;DHT22;1652;51.318;6.202;2023-05-29T15:12:21;19.00;1.00
3281;DHT22;1652;51.318;6.202;2023-05-29T15:14:48;18.90;1.00
3281;DHT22;1652;51.318;6.202;2023-05-29T15:17:16;18.90;1.00
3281;DHT22;1652;51.318;6.202;2023-05-29T15:19:44;18.80;1.00
3281;DHT22;1652;51.318;6.202;2023-05-29T15:22:11;18.70;1.00
3281;DHT22;1652;51.318;6.202;2023-05-29T15:24:38;18.70;1.00
3281;DHT22;1652;51.318;6.202;2023-05-29T15:27:05;18.70;1.00
3281;DHT22;1652;51.318;6.202;2023-05-29T15:29:34;18.90;1.00
3281;DHT22;1652;51.318;6.202;2023-05-29T15:32:02;18.90;1.00
3281;DHT22;1652;51.318;6.202;2023-05-29T15:34:29;19.00;1.00
3281;DHT22;1652;51.318;6.202;2023-05-29T15:36:56;18.90;1.00
3281;DHT22;1652;51.318;6.202;2023-05-29T15:39:23;18.80;1.00
3281;DHT22;1652;51.318;6.202;2023-05-29T15:41:52;18.70;1.00
3281;DHT22;1652;51.318;6.202;2023-05-29T15:44:19;18.80;1.00
3281;DHT22;1652;51.318;6.202;2023-05-29T15:46:46;18.80;1.00
3281;DHT22;1652;51.318;6.202;2023-05-29T15:49:13;18.90;1.00
3281;DHT22;1652;51.318;6.202;2023-05-29T15:51:40;19.00;99.90
3281;DHT22;1652;51.318;6.202;2023-05-29T15:54:09;18.80;99.90
3281;DHT22;1652;51.318;6.202;2023-05-29T15:56:37;18.80;99.90
3281;DHT22;1652;51.318;6.202;2023-05-29T15:59:04;18.80;99.90
3281;DHT22;1652;51.318;6.202;2023-05-29T16:01:32;18.80;99.90
3281;DHT22;1652;51.318;6.202;2023-05-29T16:03:59;18.80;99.90
3281;DHT22;1652;51.318;6.202;2023-05-29T16:06:26;18.90;99.90
3281;DHT22;1652;51.318;6.202;2023-05-29T16:08:53;18.90;99.90
3281;DHT22;1652;51.318;6.202;2023-05-29T16:11:20;18.80;99.90
3281;DHT22;1652;51.318;6.202;2023-05-29T16:13:47;18.80;99.90
3281;DHT22;1652;51.318;6.202;2023-05-29T16:16:21;18.70;99.90
3281;DHT22;1652;51.318;6.202;2023-05-29T16:18:48;18.70;99.90
3281;DHT22;1652;51.318;6.202;2023-05-29T16:21:15;18.80;99.90
3281;DHT22;1652;51.318;6.202;2023-05-29T16:23:44;18.90;99.90
3281;DHT22;1652;51.318;6.202;2023-05-29T16:26:11;18.90;99.90
3281;DHT22;1652;51.318;6.202;2023-05-29T16:28:38;18.90;99.90
3281;DHT22;1652;51.318;6.202;2023-05-29T16:31:05;18.70;99.90
3281;DHT22;1652;51.318;6.202;2023-05-29T16:33:32;18.80;99.90
3281;DHT22;1652;51.318;6.202;2023-05-29T16:35:59;18.90;99.90
3281;DHT22;1652;51.318;6.202;2023-05-29T16:38:27;18.90;99.90